Turner, Minnesota
Current Conditions -  °F | °C
As of 3:27 AM on Friday 31 Oct 2014 (Local Time) from KHZX Reporting Station
Clear Clear  
Wind Chill: 20°   Ceiling: Unl
Heat Index: 28°   Visibility: 10mi
Dew Point: 19°   Wind: 9mph
Humidity: 69%   Direction: 360°N
Pressure: 30.48"   Gusts: 18mph
Location:  46.7232°N, 93.3159°W
Report Text: KHZX 310827Z AUTO 36008G16KT 10SM CLR M02/M07 A3048 RMK AO2
Loading
Personal Weather Stations






























Interactive Weather Map
Tropical Storm Tracking
New forecast layout! Learn more

10-Day Weather Forecast

Advertisements
Track Severe Weather on mobile